createdAt,value
2016-04-12T00:00:40.222Z,0
2016-04-12T00:01:40.209Z,0
2016-04-12T00:02:40.165Z,0
2016-04-12T00:03:40.167Z,0
2016-04-12T00:04:40.123Z,0
2016-04-12T00:05:40.110Z,0
2016-04-12T00:06:40.081Z,0
2016-04-12T00:07:40.053Z,0
2016-04-12T00:08:40.036Z,0
2016-04-12T00:09:40.007Z,0
2016-04-12T00:10:39.260Z,0
2016-04-12T00:11:39.950Z,0
2016-04-12T00:12:39.937Z,0
2016-04-12T00:13:39.909Z,0
2016-04-12T00:14:39.895Z,0
2016-04-12T00:15:39.867Z,0
2016-04-12T00:16:39.666Z,0
2016-04-12T00:17:39.810Z,0
2016-04-12T00:18:39.813Z,0
2016-04-12T00:19:39.768Z,0
2016-04-12T00:20:39.740Z,0
2016-04-12T00:21:39.726Z,0
2016-04-12T00:22:39.699Z,0
2016-04-12T00:23:39.669Z,0
2016-04-12T00:24:39.657Z,0
2016-04-12T00:25:39.628Z,0
2016-04-12T00:26:39.600Z,0
2016-04-12T00:27:39.570Z,0
2016-04-12T00:28:39.558Z,0
2016-04-12T00:29:39.530Z,0
2016-04-12T00:30:39.374Z,0
2016-04-12T00:31:39.729Z,0
2016-04-12T00:32:39.454Z,0
2016-04-12T00:33:39.426Z,0
2016-04-12T00:34:39.412Z,0
2016-04-12T00:35:39.384Z,0
2016-04-12T00:36:39.356Z,0
2016-04-12T00:37:39.328Z,0
2016-04-12T00:38:39.315Z,0
2016-04-12T00:39:39.286Z,0
2016-04-12T00:40:39.273Z,0
2016-04-12T00:41:39.244Z,0
2016-04-12T00:42:39.232Z,0
2016-04-12T00:43:39.187Z,0
2016-04-12T00:44:39.174Z,0
2016-04-12T00:45:39.146Z,0
2016-04-12T00:46:39.320Z,0
2016-04-12T00:47:39.105Z,0
2016-04-12T00:48:39.075Z,0
2016-04-12T00:49:39.048Z,0
2016-04-12T00:50:39.019Z,0
2016-04-12T00:51:38.991Z,0
2016-04-12T00:52:38.977Z,0
2016-04-12T00:53:38.949Z,0
2016-04-12T00:54:38.936Z,0
2016-04-12T00:55:38.908Z,0
2016-04-12T00:56:38.894Z,0
2016-04-12T00:57:38.849Z,0
2016-04-12T00:58:38.822Z,0
2016-04-12T00:59:38.808Z,0
2016-04-12T01:00:38.779Z,0
2016-04-12T01:01:38.799Z,0
2016-04-12T01:02:38.738Z,0
2016-04-12T01:03:38.710Z,0
2016-04-12T01:04:38.696Z,0
2016-04-12T01:05:38.668Z,0
2016-04-12T01:06:38.640Z,0
2016-04-12T01:07:38.612Z,0
2016-04-12T01:08:38.582Z,0
2016-04-12T01:09:38.585Z,0
2016-04-12T01:10:38.542Z,0
2016-04-12T01:11:38.529Z,0
2016-04-12T01:12:38.500Z,0
2016-04-12T01:13:38.470Z,0
2016-04-12T01:14:38.442Z,0
2016-04-12T01:15:38.414Z,0
2016-04-12T01:16:38.417Z,0
2016-04-12T01:17:38.372Z,0
2016-04-12T01:18:38.359Z,0
2016-04-12T01:19:38.347Z,0
2016-04-12T01:20:38.302Z,0
2016-04-12T01:21:38.274Z,0
2016-04-12T01:22:38.261Z,0
2016-04-12T01:23:38.248Z,0
2016-04-12T01:24:38.204Z,0
2016-04-12T01:25:38.191Z,0
2016-04-12T01:26:38.163Z,0
2016-04-12T01:27:38.149Z,0
2016-04-12T01:28:38.121Z,0
2016-04-12T01:29:38.093Z,0
2016-04-12T01:30:38.063Z,0
2016-04-12T01:31:38.051Z,0
2016-04-12T01:32:38.022Z,0
2016-04-12T01:33:37.993Z,0
2016-04-12T01:34:37.981Z,0
2016-04-12T01:35:37.952Z,0
2016-04-12T01:36:37.954Z,0
2016-04-12T01:37:37.895Z,0
2016-04-12T01:38:37.882Z,0
2016-04-12T01:39:37.853Z,0
2016-04-12T01:40:37.825Z,0
2016-04-12T01:41:37.843Z,0
2016-04-12T01:42:37.783Z,0
2016-04-12T01:43:37.771Z,0
2016-04-12T01:44:37.570Z,0
2016-04-12T01:45:37.714Z,0
2016-04-12T01:46:37.684Z,0
2016-04-12T01:47:37.656Z,0
2016-04-12T01:48:37.644Z,0
2016-04-12T01:49:37.614Z,0
2016-04-12T01:50:37.586Z,0
2016-04-12T01:51:37.558Z,0
2016-04-12T01:52:37.560Z,0
2016-04-12T01:53:37.532Z,0
2016-04-12T01:54:37.488Z,0
2016-04-12T01:55:37.475Z,0
2016-04-12T01:56:37.462Z,0
2016-04-12T01:57:37.433Z,0
2016-04-12T01:58:37.404Z,0
2016-04-12T01:59:37.377Z,0
2016-04-12T02:00:37.347Z,0
2016-04-12T02:01:37.350Z,0
2016-04-12T02:02:37.307Z,0
2016-04-12T02:03:37.277Z,0
2016-04-12T02:04:37.249Z,0
2016-04-12T02:05:37.220Z,0
2016-04-12T02:06:37.223Z,0
2016-04-12T02:07:37.179Z,0
2016-04-12T02:08:37.165Z,0
2016-04-12T02:09:37.137Z,0
2016-04-12T02:10:37.123Z,0
2016-04-12T02:11:37.080Z,0
2016-04-12T02:12:37.051Z,0
2016-04-12T02:13:37.039Z,0
2016-04-12T02:14:37.025Z,0
2016-04-12T02:15:36.981Z,0
2016-04-12T02:16:36.969Z,0
2016-04-12T02:17:36.940Z,0
2016-04-12T02:18:36.928Z,0
2016-04-12T02:19:36.883Z,0
2016-04-12T02:20:36.870Z,0
2016-04-12T02:21:36.842Z,0
2016-04-12T02:22:36.813Z,0
2016-04-12T02:23:36.800Z,0
2016-04-12T02:24:36.787Z,0
2016-04-12T02:25:36.758Z,0
2016-04-12T02:26:36.730Z,0
2016-04-12T02:27:36.701Z,0
2016-04-12T02:28:36.688Z,0
2016-04-12T02:29:36.644Z,0
2016-04-12T02:30:36.631Z,0
2016-04-12T02:31:36.602Z,0
2016-04-12T02:32:35.855Z,0
2016-04-12T02:33:36.561Z,0
2016-04-12T02:34:36.533Z,0
2016-04-12T02:35:36.505Z,0
2016-04-12T02:36:36.476Z,0
2016-04-12T02:37:36.463Z,0
2016-04-12T02:38:36.449Z,0
2016-04-12T02:39:36.265Z,0
2016-04-12T02:40:36.393Z,0
2016-04-12T02:41:36.364Z,0
2016-04-12T02:42:36.335Z,0
2016-04-12T02:43:36.338Z,0
2016-04-12T02:44:36.295Z,0
2016-04-12T02:45:36.265Z,0
2016-04-12T02:46:36.253Z,0
2016-04-12T02:47:36.223Z,0
2016-04-12T02:48:36.195Z,0
2016-04-12T02:49:36.183Z,0
2016-04-12T02:50:36.138Z,0
2016-04-12T02:51:36.141Z,0
2016-04-12T02:52:36.097Z,0
2016-04-12T02:53:36.083Z,0
2016-04-12T02:54:36.086Z,0
2016-04-12T02:55:36.027Z,0
2016-04-12T02:56:36.013Z,0
2016-04-12T02:57:35.985Z,0
2016-04-12T02:58:35.956Z,0
2016-04-12T02:59:35.927Z,0
2016-04-12T03:00:35.915Z,0
2016-04-12T03:01:35.949Z,0
2016-04-12T03:02:35.857Z,0
2016-04-12T03:03:35.845Z,0
2016-04-12T03:04:35.816Z,0
2016-04-12T03:05:35.803Z,0
2016-04-12T03:06:35.759Z,0
2016-04-12T03:07:35.746Z,0
2016-04-12T03:08:35.717Z,0
2016-04-12T03:09:35.704Z,0
2016-04-12T03:10:35.676Z,0
2016-04-12T03:11:35.663Z,0
2016-04-12T03:12:35.651Z,0
2016-04-12T03:13:35.606Z,0
2016-04-12T03:14:35.609Z,0
2016-04-12T03:15:35.564Z,0
2016-04-12T03:16:35.551Z,0
2016-04-12T03:17:35.508Z,0
2016-04-12T03:18:35.478Z,0
2016-04-12T03:19:35.451Z,0
2016-04-12T03:20:35.438Z,0
2016-04-12T03:21:35.253Z,0
2016-04-12T03:22:35.381Z,0
2016-04-12T03:23:35.367Z,0
2016-04-12T03:24:35.323Z,0
2016-04-12T03:25:35.311Z,0
2016-04-12T03:26:35.282Z,0
2016-04-12T03:27:35.253Z,0
2016-04-12T03:28:35.240Z,0
2016-04-12T03:29:35.211Z,0
2016-04-12T03:30:35.199Z,0
2016-04-12T03:31:35.170Z,0
2016-04-12T03:32:35.001Z,0
2016-04-12T03:33:35.113Z,0
2016-04-12T03:34:35.100Z,0
2016-04-12T03:35:35.071Z,0
2016-04-12T03:36:35.043Z,0
2016-04-12T03:37:35.046Z,0
2016-04-12T03:38:35.002Z,0
2016-04-12T03:39:34.974Z,0
2016-04-12T03:40:34.960Z,0
2016-04-12T03:41:34.916Z,0
2016-04-12T03:42:34.744Z,0
2016-04-12T03:43:34.874Z,0
2016-04-12T03:44:34.862Z,0
2016-04-12T03:45:34.831Z,0
2016-04-12T03:46:34.801Z,0
2016-04-12T03:47:34.054Z,0
2016-04-12T03:48:34.775Z,0
2016-04-12T03:49:34.731Z,0
2016-04-12T03:50:34.719Z,0
2016-04-12T03:51:34.689Z,0
2016-04-12T03:52:34.661Z,0
2016-04-12T03:53:34.648Z,0
2016-04-12T03:54:34.620Z,0
2016-04-12T03:55:34.592Z,0
2016-04-12T03:56:34.563Z,0
2016-04-12T03:57:34.550Z,0
2016-04-12T03:58:34.521Z,0
2016-04-12T03:59:34.509Z,0
2016-04-12T04:00:34.480Z,0
2016-04-12T04:01:34.295Z,0
2016-04-12T04:02:34.485Z,0
2016-04-12T04:03:34.410Z,0
2016-04-12T04:04:34.366Z,0
2016-04-12T04:05:34.353Z,0
2016-04-12T04:06:34.340Z,0
2016-04-12T04:07:34.295Z,0
2016-04-12T04:08:34.298Z,0
2016-04-12T04:09:34.255Z,0
2016-04-12T04:10:34.226Z,0
2016-04-12T04:11:34.229Z,0
2016-04-12T04:12:34.184Z,0
2016-04-12T04:13:34.171Z,0
2016-04-12T04:14:34.143Z,0
2016-04-12T04:15:34.114Z,0
2016-04-12T04:16:34.101Z,0
2016-04-12T04:17:33.978Z,0
2016-04-12T04:18:34.045Z,0
2016-04-12T04:19:34.031Z,0
2016-04-12T04:20:34.018Z,0
2016-04-12T04:21:33.989Z,0
2016-04-12T04:22:33.945Z,0
2016-04-12T04:23:33.933Z,0
2016-04-12T04:24:33.903Z,0
2016-04-12T04:25:33.875Z,0
2016-04-12T04:26:33.862Z,0
2016-04-12T04:27:33.834Z,0
2016-04-12T04:28:33.805Z,0
2016-04-12T04:29:33.777Z,5
2016-04-12T04:30:33.764Z,5
2016-04-12T04:31:33.735Z,5
2016-04-12T04:32:33.800Z,5
2016-04-12T04:33:33.710Z,5
2016-04-12T04:34:33.665Z,5
2016-04-12T04:35:33.636Z,10
2016-04-12T04:36:33.623Z,10
2016-04-12T04:37:33.611Z,10
2016-04-12T04:38:33.582Z,10
2016-04-12T04:39:33.554Z,15
2016-04-12T04:40:33.525Z,15
2016-04-12T04:41:33.496Z,20
2016-04-12T04:42:33.484Z,20
2016-04-12T04:43:33.455Z,20
2016-04-12T04:44:33.442Z,25
2016-04-12T04:45:33.398Z,25
2016-04-12T04:46:33.385Z,25
2016-04-12T04:47:33.622Z,30
2016-04-12T04:48:33.343Z,30
2016-04-12T04:49:33.315Z,35
2016-04-12T04:50:33.287Z,35
2016-04-12T04:51:33.273Z,35
2016-04-12T04:52:33.245Z,35
2016-04-12T04:53:33.216Z,35
2016-04-12T04:54:33.220Z,30
2016-04-12T04:55:33.175Z,30
2016-04-12T04:56:33.162Z,35
2016-04-12T04:57:33.133Z,35
2016-04-12T04:58:33.104Z,35
2016-04-12T04:59:33.076Z,40
2016-04-12T05:00:33.078Z,40
2016-04-12T05:01:33.035Z,45
2016-04-12T05:02:33.178Z,45
2016-04-12T05:03:32.977Z,50
2016-04-12T05:04:32.964Z,50
2016-04-12T05:05:32.936Z,55
2016-04-12T05:06:32.908Z,55
2016-04-12T05:07:32.894Z,60
2016-04-12T05:08:32.944Z,65
2016-04-12T05:09:32.838Z,75
2016-04-12T05:10:33.194Z,80
2016-04-12T05:11:32.790Z,85
2016-04-12T05:12:32.776Z,90
2016-04-12T05:13:32.749Z,95
2016-04-12T05:14:32.720Z,100
2016-04-12T05:15:32.706Z,115
2016-04-12T05:16:32.679Z,125
2016-04-12T05:17:32.822Z,140
2016-04-12T05:18:32.637Z,145
2016-04-12T05:19:32.608Z,150
2016-04-12T05:20:32.595Z,155
2016-04-12T05:21:32.567Z,155
2016-04-12T05:22:32.538Z,155
2016-04-12T05:23:32.510Z,160
2016-04-12T05:24:32.497Z,160
2016-04-12T05:25:32.469Z,170
2016-04-12T05:26:32.440Z,180
2016-04-12T05:27:32.427Z,180
2016-04-12T05:28:32.399Z,180
2016-04-12T05:29:32.385Z,185
2016-04-12T05:30:32.357Z,175
2016-04-12T05:31:32.328Z,165
2016-04-12T05:32:32.299Z,155
2016-04-12T05:33:32.287Z,155
2016-04-12T05:34:32.273Z,150
2016-04-12T05:35:32.246Z,150
2016-04-12T05:36:32.216Z,145
2016-04-12T05:37:32.187Z,150
2016-04-12T05:38:32.176Z,155
2016-04-12T05:39:32.146Z,160
2016-04-12T05:40:32.134Z,160
2016-04-12T05:41:32.105Z,160
2016-04-12T05:42:32.092Z,155
2016-04-12T05:43:32.064Z,155
2016-04-12T05:44:32.034Z,160
2016-04-12T05:45:32.007Z,170
2016-04-12T05:46:31.993Z,180
2016-04-12T05:47:32.075Z,190
2016-04-12T05:48:32.092Z,195
2016-04-12T05:49:31.923Z,205
2016-04-12T05:50:31.895Z,210
2016-04-12T05:51:31.866Z,210
2016-04-12T05:52:31.853Z,210
2016-04-12T05:53:31.856Z,210
2016-04-12T05:54:31.797Z,210
2016-04-12T05:55:31.783Z,210
2016-04-12T05:56:31.770Z,210
2016-04-12T05:57:31.742Z,215
2016-04-12T05:58:31.713Z,220
2016-04-12T05:59:31.685Z,230
2016-04-12T06:00:31.656Z,235
2016-04-12T06:01:31.643Z,250
2016-04-12T06:02:31.615Z,255
2016-04-12T06:03:31.602Z,260
2016-04-12T06:04:31.589Z,270
2016-04-12T06:05:31.560Z,280
2016-04-12T06:06:31.531Z,285
2016-04-12T06:07:31.504Z,295
2016-04-12T06:08:31.490Z,305
2016-04-12T06:09:31.477Z,310
2016-04-12T06:10:31.449Z,315
2016-04-12T06:11:31.435Z,320
2016-04-12T06:12:31.407Z,315
2016-04-12T06:13:31.409Z,315
2016-04-12T06:14:31.350Z,320
2016-04-12T06:15:31.321Z,310
2016-04-12T06:16:31.309Z,305
2016-04-12T06:17:31.280Z,305
2016-04-12T06:18:31.267Z,315
2016-04-12T06:19:31.239Z,320
2016-04-12T06:20:31.225Z,330
2016-04-12T06:21:31.197Z,340
2016-04-12T06:22:31.184Z,345
2016-04-12T06:23:31.156Z,345
2016-04-12T06:24:31.127Z,345
2016-04-12T06:25:31.114Z,350
2016-04-12T06:26:31.086Z,365
2016-04-12T06:27:31.072Z,470
2016-04-12T06:28:31.043Z,555
2016-04-12T06:29:31.031Z,630
2016-04-12T06:30:31.002Z,720
2016-04-12T06:31:30.989Z,735
2016-04-12T06:32:30.961Z,760
2016-04-12T06:33:30.932Z,845
2016-04-12T06:34:30.919Z,850
2016-04-12T06:35:30.907Z,680
2016-04-12T06:36:30.878Z,485
2016-04-12T06:37:30.849Z,340
2016-04-12T06:38:30.837Z,315
2016-04-12T06:39:30.808Z,305
2016-04-12T06:40:30.796Z,310
2016-04-12T06:41:30.766Z,325
2016-04-12T06:42:30.768Z,335
2016-04-12T06:43:30.725Z,330
2016-04-12T06:44:30.728Z,330
2016-04-12T06:45:30.699Z,335
2016-04-12T06:46:30.717Z,335
2016-04-12T06:47:30.642Z,330
2016-04-12T06:48:30.629Z,330
2016-04-12T06:49:30.600Z,330
2016-04-12T06:50:30.587Z,330
2016-04-12T06:51:30.575Z,330
2016-04-12T06:52:30.546Z,330
2016-04-12T06:53:30.673Z,330
2016-04-12T06:54:30.520Z,330
2016-04-12T06:55:30.492Z,330
2016-04-12T06:56:30.464Z,330
2016-04-12T06:57:30.450Z,330
2016-04-12T06:58:30.422Z,330
2016-04-12T06:59:30.424Z,330
2016-04-12T07:00:30.396Z,330
2016-04-12T07:01:30.382Z,335
2016-04-12T07:02:30.369Z,335
2016-04-12T07:03:32.169Z,335
2016-04-12T07:04:30.297Z,335
2016-04-12T07:05:30.268Z,420
2016-04-12T07:06:30.255Z,755
2016-04-12T07:07:30.227Z,1100
2016-04-12T07:08:30.213Z,1260
2016-04-12T07:09:30.201Z,1215
2016-04-12T07:10:30.173Z,1245
2016-04-12T07:11:30.159Z,1270
2016-04-12T07:12:30.131Z,1270
2016-04-12T07:13:30.134Z,1315
2016-04-12T07:14:30.090Z,1335
2016-04-12T07:15:30.076Z,1340
2016-04-12T07:16:30.064Z,1330
2016-04-12T07:17:30.051Z,1360
2016-04-12T07:18:30.022Z,965
2016-04-12T07:19:30.009Z,900
2016-04-12T07:20:29.981Z,1290
2016-04-12T07:21:29.984Z,1350
2016-04-12T07:22:30.017Z,1365
2016-04-12T07:23:29.942Z,1160
2016-04-12T07:24:29.913Z,755
2016-04-12T07:25:29.916Z,395
2016-04-12T07:26:29.887Z,370
2016-04-12T07:27:29.875Z,375
2016-04-12T07:28:29.861Z,415
2016-04-12T07:29:29.833Z,765
2016-04-12T07:30:29.820Z,1255
2016-04-12T07:31:29.807Z,1545
2016-04-12T07:32:29.794Z,1500
2016-04-12T07:33:29.797Z,1475
2016-04-12T07:34:29.769Z,1100
2016-04-12T07:35:29.740Z,840
2016-04-12T07:36:29.945Z,1120
2016-04-12T07:37:29.792Z,1515
2016-04-12T07:38:29.701Z,1610
2016-04-12T07:39:29.688Z,1640
2016-04-12T07:40:28.941Z,1605
2016-04-12T07:41:29.662Z,1410
2016-04-12T07:42:29.652Z,1040
2016-04-12T07:43:29.672Z,580
2016-04-12T07:44:29.707Z,490
2016-04-12T07:45:29.742Z,440
2016-04-12T07:46:29.762Z,390
2016-04-12T07:47:29.826Z,385
2016-04-12T07:48:29.799Z,375
2016-04-12T07:49:29.818Z,375
2016-04-12T07:50:29.824Z,370
2016-04-12T07:51:29.828Z,375
2016-04-12T07:52:29.800Z,375
2016-04-12T07:53:29.793Z,370
2016-04-12T07:54:29.786Z,380
2016-04-12T07:55:29.779Z,375
2016-04-12T07:56:29.773Z,380
2016-04-12T07:57:29.750Z,385
2016-04-12T07:58:29.943Z,380
2016-04-12T07:59:29.760Z,380
2016-04-12T08:00:29.718Z,385
2016-04-12T08:01:29.691Z,385
2016-04-12T08:02:29.806Z,380
2016-04-12T08:03:29.778Z,375
2016-04-12T08:04:29.657Z,380
2016-04-12T08:05:29.629Z,370
2016-04-12T08:06:29.616Z,370
2016-04-12T08:07:29.605Z,375
2016-04-12T08:08:29.597Z,390
2016-04-12T08:09:29.584Z,390
2016-04-12T08:10:29.555Z,385
2016-04-12T08:11:29.606Z,395
2016-04-12T08:12:29.515Z,410
2016-04-12T08:13:29.517Z,410
2016-04-12T08:14:29.494Z,425
2016-04-12T08:15:29.466Z,410
2016-04-12T08:16:29.437Z,405
2016-04-12T08:17:29.425Z,405
2016-04-12T08:18:29.489Z,405
2016-04-12T08:19:29.382Z,410
2016-04-12T08:20:29.386Z,420
2016-04-12T08:21:29.404Z,425
2016-04-12T08:22:29.344Z,425
2016-04-12T08:23:29.409Z,430
2016-04-12T08:24:33.913Z,440
2016-04-12T08:25:29.290Z,455
2016-04-12T08:26:29.260Z,455
2016-04-12T08:27:29.248Z,465
2016-04-12T08:28:29.235Z,475
2016-04-12T08:29:29.051Z,495
2016-04-12T08:30:29.194Z,505
2016-04-12T08:31:29.181Z,500
2016-04-12T08:32:29.152Z,480
2016-04-12T08:33:29.264Z,465
2016-04-12T08:34:29.110Z,450
2016-04-12T08:35:29.113Z,435
2016-04-12T08:36:29.070Z,430
2016-04-12T08:37:29.056Z,420
2016-04-12T08:38:29.043Z,415
2016-04-12T08:39:29.046Z,410
2016-04-12T08:40:29.018Z,410
2016-04-12T08:41:29.098Z,415
2016-04-12T08:42:28.976Z,430
2016-04-12T08:43:28.948Z,440
2016-04-12T08:44:28.950Z,450
2016-04-12T08:45:28.922Z,465
2016-04-12T08:46:28.893Z,460
2016-04-12T08:47:28.880Z,460
2016-04-12T08:48:28.945Z,445
2016-04-12T08:49:28.855Z,445
2016-04-12T08:50:28.841Z,445
2016-04-12T08:51:28.813Z,445
2016-04-12T08:52:28.659Z,455
2016-04-12T08:53:28.771Z,505
2016-04-12T08:54:28.789Z,515
2016-04-12T08:55:28.746Z,525
2016-04-12T08:56:28.717Z,515
2016-04-12T08:57:28.563Z,500
2016-04-12T08:58:28.675Z,485
2016-04-12T08:59:28.678Z,465
2016-04-12T09:00:28.665Z,460
2016-04-12T09:01:28.637Z,445
2016-04-12T09:02:28.624Z,440
2016-04-12T09:03:28.704Z,435
2016-04-12T09:04:28.582Z,430
2016-04-12T09:05:28.568Z,425
2016-04-12T09:06:28.540Z,420
2016-04-12T09:07:28.543Z,420
2016-04-12T09:08:28.515Z,425
2016-04-12T09:09:28.491Z,435
2016-04-12T09:10:28.478Z,435
2016-04-12T09:11:28.481Z,430
2016-04-12T09:12:28.437Z,430
2016-04-12T09:13:28.439Z,430
2016-04-12T09:14:28.411Z,435
2016-04-12T09:15:28.413Z,440
2016-04-12T09:16:28.369Z,435
2016-04-12T09:17:28.356Z,435
2016-04-12T09:18:28.359Z,435
2016-04-12T09:19:28.783Z,430
2016-04-12T09:20:28.302Z,440
2016-04-12T09:21:28.288Z,460
2016-04-12T09:22:28.260Z,460
2016-04-12T09:23:28.247Z,470
2016-04-12T09:24:28.235Z,515
2016-04-12T09:25:28.205Z,540
2016-04-12T09:26:28.193Z,545
2016-04-12T09:27:28.180Z,575
2016-04-12T09:28:28.167Z,555
2016-04-12T09:29:28.154Z,580
2016-04-12T09:30:28.126Z,575
2016-04-12T09:31:28.113Z,580
2016-04-12T09:32:28.084Z,605
2016-04-12T09:33:28.227Z,625
2016-04-12T09:34:28.059Z,630
2016-04-12T09:35:28.046Z,605
2016-04-12T09:36:28.032Z,605
2016-04-12T09:37:28.004Z,615
2016-04-12T09:38:27.990Z,620
2016-04-12T09:39:27.978Z,600
2016-04-12T09:40:27.965Z,575
2016-04-12T09:41:27.953Z,610
2016-04-12T09:42:27.923Z,625
2016-04-12T09:43:27.926Z,655
2016-04-12T09:44:27.928Z,705
2016-04-12T09:45:27.884Z,770
2016-04-12T09:46:27.950Z,780
2016-04-12T09:47:27.844Z,800
2016-04-12T09:48:27.752Z,835
2016-04-12T09:49:27.817Z,870
2016-04-12T09:50:27.805Z,880
2016-04-12T09:51:27.791Z,895
2016-04-12T09:52:27.777Z,885
2016-04-12T09:53:27.749Z,810
2016-04-12T09:54:27.738Z,755
2016-04-12T09:55:27.724Z,720
2016-04-12T09:56:27.711Z,685
2016-04-12T09:57:27.698Z,665
2016-04-12T09:58:27.685Z,665
2016-04-12T09:59:27.688Z,695
2016-04-12T10:00:27.675Z,750
2016-04-12T10:01:27.632Z,830
2016-04-12T10:02:27.680Z,830
2016-04-12T10:03:27.636Z,890
2016-04-12T10:04:27.607Z,865
2016-04-12T10:05:27.595Z,805
2016-04-12T10:06:27.565Z,775
2016-04-12T10:07:27.554Z,780
2016-04-12T10:08:27.540Z,820
2016-04-12T10:09:27.653Z,830
2016-04-12T10:10:27.514Z,840
2016-04-12T10:11:27.501Z,905
2016-04-12T10:12:27.473Z,975
2016-04-12T10:13:27.475Z,950
2016-04-12T10:14:27.462Z,920
2016-04-12T10:15:27.449Z,865
2016-04-12T10:16:27.437Z,810
2016-04-12T10:17:27.424Z,790
2016-04-12T10:18:27.442Z,780
2016-04-12T10:19:27.382Z,770
2016-04-12T10:20:27.385Z,750
2016-04-12T10:21:27.216Z,705
2016-04-12T10:22:27.344Z,700
2016-04-12T10:23:27.331Z,755
2016-04-12T10:24:27.318Z,845
2016-04-12T10:25:27.304Z,845
2016-04-12T10:26:27.291Z,825
2016-04-12T10:27:27.279Z,765
2016-04-12T10:28:27.266Z,685
2016-04-12T10:29:27.252Z,660
2016-04-12T10:30:27.240Z,670
2016-04-12T10:31:27.321Z,685
2016-04-12T10:32:27.214Z,695
2016-04-12T10:33:27.201Z,660
2016-04-12T10:34:27.251Z,620
2016-04-12T10:35:27.159Z,600
2016-04-12T10:36:27.007Z,660
2016-04-12T10:37:27.587Z,735
2016-04-12T10:38:27.121Z,770
2016-04-12T10:39:27.123Z,755
2016-04-12T10:40:27.111Z,690
2016-04-12T10:41:27.441Z,685
2016-04-12T10:42:27.084Z,690
2016-04-12T10:43:27.057Z,675
2016-04-12T10:44:27.043Z,660
2016-04-12T10:45:26.875Z,705
2016-04-12T10:46:27.017Z,725
2016-04-12T10:47:27.005Z,745
2016-04-12T10:48:26.992Z,735
2016-04-12T10:49:26.979Z,715
2016-04-12T10:50:26.966Z,645
2016-04-12T10:51:26.952Z,635
2016-04-12T10:52:26.972Z,685
2016-04-12T10:53:26.927Z,685
2016-04-12T10:54:26.914Z,660
2016-04-12T10:55:26.902Z,660
2016-04-12T10:56:26.888Z,705
2016-04-12T10:57:26.860Z,720
2016-04-12T10:58:26.846Z,760
2016-04-12T10:59:26.849Z,815
2016-04-12T11:00:26.821Z,810
2016-04-12T11:01:26.807Z,770
2016-04-12T11:02:26.795Z,795
2016-04-12T11:03:27.016Z,825
2016-04-12T11:04:26.612Z,840
2016-04-12T11:05:26.756Z,835
2016-04-12T11:06:26.743Z,760
2016-04-12T11:07:26.714Z,735
2016-04-12T11:08:26.701Z,765
2016-04-12T11:09:26.705Z,785
2016-04-12T11:10:26.692Z,780
2016-04-12T11:11:26.678Z,815
2016-04-12T11:12:26.650Z,790
2016-04-12T11:13:26.652Z,720
2016-04-12T11:14:26.624Z,670
2016-04-12T11:15:26.611Z,655
2016-04-12T11:16:26.598Z,650
2016-04-12T11:17:26.600Z,670
2016-04-12T11:18:26.588Z,670
2016-04-12T11:19:26.559Z,665
2016-04-12T11:20:26.546Z,670
2016-04-12T11:21:26.549Z,635
2016-04-12T11:22:26.520Z,685
2016-04-12T11:23:26.508Z,740
2016-04-12T11:24:26.495Z,820
2016-04-12T11:25:26.497Z,955
2016-04-12T11:26:26.469Z,1005
2016-04-12T11:27:26.471Z,985
2016-04-12T11:28:26.443Z,955
2016-04-12T11:29:26.430Z,905
2016-04-12T11:30:26.417Z,845
2016-04-12T11:31:26.405Z,820
2016-04-12T11:32:26.390Z,810
2016-04-12T11:33:26.363Z,805
2016-04-12T11:34:26.366Z,790
2016-04-12T11:35:26.337Z,760
2016-04-12T11:36:26.340Z,735
2016-04-12T11:37:26.310Z,730
2016-04-12T11:38:26.313Z,715
2016-04-12T11:39:26.284Z,700
2016-04-12T11:40:26.272Z,685
2016-04-12T11:41:26.275Z,680
2016-04-12T11:42:26.245Z,660
2016-04-12T11:43:26.233Z,655
2016-04-12T11:44:26.237Z,670
2016-04-12T11:45:26.223Z,705
2016-04-12T11:46:26.194Z,745
2016-04-12T11:47:26.181Z,745
2016-04-12T11:48:26.200Z,740
2016-04-12T11:49:26.172Z,735
2016-04-12T11:50:26.205Z,740
2016-04-12T11:51:26.145Z,700
2016-04-12T11:52:26.132Z,685
2016-04-12T11:53:26.119Z,735
2016-04-12T11:54:26.091Z,770
2016-04-12T11:55:26.109Z,790
2016-04-12T11:56:26.080Z,760
2016-04-12T11:57:26.177Z,740
2016-04-12T11:58:26.164Z,685
2016-04-12T11:59:26.042Z,670
2016-04-12T12:00:26.030Z,680
2016-04-12T12:01:26.000Z,735
2016-04-12T12:02:26.582Z,765
2016-04-12T12:03:25.990Z,770
2016-04-12T12:04:26.024Z,815
2016-04-12T12:05:25.965Z,780
2016-04-12T12:06:25.951Z,770
2016-04-12T12:07:25.782Z,765
2016-04-12T12:08:25.926Z,780
2016-04-12T12:09:25.896Z,815
2016-04-12T12:10:25.884Z,870
2016-04-12T12:11:25.870Z,910
2016-04-12T12:12:25.873Z,880
2016-04-12T12:13:25.862Z,840
2016-04-12T12:14:25.848Z,785
2016-04-12T12:15:25.834Z,765
2016-04-12T12:16:25.853Z,775
2016-04-12T12:17:25.809Z,795
2016-04-12T12:18:25.796Z,805
2016-04-12T12:19:25.784Z,745
2016-04-12T12:20:25.786Z,790
2016-04-12T12:21:25.773Z,860
2016-04-12T12:22:25.745Z,870
2016-04-12T12:23:25.731Z,865
2016-04-12T12:24:25.734Z,880
2016-04-12T12:25:25.722Z,910
2016-04-12T12:26:25.755Z,940
2016-04-12T12:27:25.695Z,925
2016-04-12T12:28:25.667Z,910
2016-04-12T12:29:25.669Z,875
2016-04-12T12:30:26.016Z,835
2016-04-12T12:31:25.644Z,820
2016-04-12T12:32:25.630Z,785
2016-04-12T12:33:25.618Z,770
2016-04-12T12:34:25.605Z,735
2016-04-12T12:35:25.591Z,735
2016-04-12T12:36:25.579Z,765
2016-04-12T12:37:25.582Z,750
2016-04-12T12:38:25.554Z,825
2016-04-12T12:39:25.556Z,835
2016-04-12T12:40:25.543Z,805
2016-04-12T12:41:25.529Z,760
2016-04-12T12:42:25.517Z,745
2016-04-12T12:43:25.488Z,720
2016-04-12T12:44:25.491Z,775
2016-04-12T12:45:25.463Z,870
2016-04-12T12:46:25.465Z,930
2016-04-12T12:47:25.467Z,920
2016-04-12T12:48:25.455Z,905
2016-04-12T12:49:25.442Z,905
2016-04-12T12:50:25.506Z,895
2016-04-12T12:51:25.417Z,915
2016-04-12T12:52:25.387Z,920
2016-04-12T12:53:25.389Z,895
2016-04-12T12:54:25.361Z,920
2016-04-12T12:55:25.380Z,1005
2016-04-12T12:56:25.336Z,980
2016-04-12T12:57:25.354Z,1005
2016-04-12T12:58:25.310Z,1015
2016-04-12T12:59:25.328Z,1030
2016-04-12T13:00:25.283Z,960
2016-04-12T13:01:25.302Z,910
2016-04-12T13:02:25.258Z,860
2016-04-12T13:03:25.276Z,820
2016-04-12T13:04:25.294Z,775
2016-04-12T13:05:25.251Z,775
2016-04-12T13:06:25.221Z,795
2016-04-12T13:07:25.224Z,735
2016-04-12T13:08:25.196Z,735
2016-04-12T13:09:25.185Z,735
2016-04-12T13:10:25.174Z,720
2016-04-12T13:11:25.160Z,720
2016-04-12T13:12:25.163Z,745
2016-04-12T13:13:24.979Z,795
2016-04-12T13:14:25.137Z,805
2016-04-12T13:15:25.124Z,845
2016-04-12T13:16:25.111Z,880
2016-04-12T13:17:25.083Z,900
2016-04-12T13:18:25.070Z,875
2016-04-12T13:19:24.963Z,825
2016-04-12T13:20:25.076Z,770
2016-04-12T13:21:25.141Z,730
2016-04-12T13:22:25.049Z,725
2016-04-12T13:23:25.098Z,660
2016-04-12T13:24:25.024Z,635
2016-04-12T13:25:24.995Z,635
2016-04-12T13:26:24.998Z,635
2016-04-12T13:27:24.984Z,665
2016-04-12T13:28:24.956Z,685
2016-04-12T13:29:24.942Z,740
2016-04-12T13:30:24.931Z,760
2016-04-12T13:31:24.948Z,760
2016-04-12T13:32:24.920Z,750
2016-04-12T13:33:24.922Z,725
2016-04-12T13:34:24.910Z,720
2016-04-12T13:35:24.880Z,715
2016-04-12T13:36:24.853Z,720
2016-04-12T13:37:24.871Z,710
2016-04-12T13:38:24.889Z,675
2016-04-12T13:39:24.844Z,655
2016-04-12T13:40:24.816Z,655
2016-04-12T13:41:24.835Z,675
2016-04-12T13:42:24.790Z,695
2016-04-12T13:43:25.042Z,725
2016-04-12T13:44:26.456Z,730
2016-04-12T13:45:24.781Z,760
2016-04-12T13:46:25.655Z,770
2016-04-12T13:47:24.813Z,780
2016-04-12T13:48:24.815Z,795
2016-04-12T13:49:24.772Z,795
2016-04-12T13:50:24.711Z,800
2016-04-12T13:51:24.683Z,795
2016-04-12T13:52:24.671Z,810
2016-04-12T13:53:24.673Z,835
2016-04-12T13:54:24.676Z,840
2016-04-12T13:55:24.647Z,830
2016-04-12T13:56:24.618Z,815
2016-04-12T13:57:24.621Z,815
2016-04-12T13:58:24.607Z,835
2016-04-12T13:59:24.595Z,845
2016-04-12T14:00:24.582Z,825
2016-04-12T14:01:25.851Z,815
2016-04-12T14:02:24.618Z,825
2016-04-12T14:03:24.543Z,820
2016-04-12T14:04:24.734Z,825
2016-04-12T14:05:24.534Z,825